Time;durP1;ratioP1;P1;durP2;ratioP2;P2;SDS_P1;SDS_P2;PMS_P1;PMS_P2;Temp;Humidity;BMP_temperature;BMP_pressure;BME280_temperature;BME280_humidity;BME280_pressure;Samples;Min_cycle;Max_cycle;Signal;HPM_P1;HPM_P2
2022/04/09 00:02:15;;;;;;;3.95;1.17;;;;;;;15.26;36.73;97918.94;5094347;28;20023;-52
2022/04/09 00:04:41;;;;;;;3.22;1.55;;;;;;;15.23;36.71;97930.00;5094120;28;20103;-52
2022/04/09 00:07:06;;;;;;;5.55;1.23;;;;;;;15.20;37.01;97927.06;5094030;28;20101;-51
2022/04/09 00:09:32;;;;;;;5.20;0.93;;;;;;;15.21;36.91;97934.72;5093955;28;20020;-52
2022/04/09 00:11:58;;;;;;;10.25;1.40;;;;;;;15.13;36.93;97932.53;5092552;28;20062;-52
2022/04/09 00:14:24;;;;;;;7.80;1.23;;;;;;;15.13;36.71;97935.16;5092709;28;20024;-51
2022/04/09 00:16:50;;;;;;;5.15;1.00;;;;;;;15.12;37.33;97933.59;5093678;28;20031;-51
2022/04/09 00:19:16;;;;;;;6.78;1.20;;;;;;;15.15;36.87;97930.44;5093841;28;20016;-51
2022/04/09 00:21:42;;;;;;;5.18;1.23;;;;;;;15.12;37.05;97944.16;5093721;28;20389;-51
2022/04/09 00:24:08;;;;;;;7.35;1.00;;;;;;;15.03;36.88;97942.97;5092365;28;20028;-52
2022/04/09 00:26:34;;;;;;;3.58;1.20;;;;;;;14.90;37.42;97947.59;5093648;28;20032;-51
2022/04/09 00:28:59;;;;;;;2.72;1.00;;;;;;;15.00;37.51;97959.34;5092254;28;20111;-51
2022/04/09 00:31:25;;;;;;;4.18;1.55;;;;;;;15.13;37.29;97973.00;5093292;28;20051;-52
2022/04/09 00:33:51;;;;;;;1.70;0.60;;;;;;;15.11;37.56;97977.72;5092117;28;20567;-50
2022/04/09 00:36:16;;;;;;;2.05;0.57;;;;;;;14.85;38.86;97966.06;5093401;28;20020;-52
2022/04/09 00:38:42;;;;;;;1.23;0.63;;;;;;;14.60;39.94;97990.28;5093363;28;20020;-52
2022/04/09 00:41:10;;;;;;;4.05;0.60;;;;;;;14.49;40.80;98001.72;5093334;28;20027;-51
2022/04/09 00:43:40;;;;;;;6.28;0.70;;;;;;;14.39;41.65;98013.72;5093327;28;20062;-51
2022/04/09 00:46:07;;;;;;;3.90;1.20;;;;;;;14.15;42.79;98017.56;5093242;28;20073;-52
2022/04/09 00:48:36;;;;;;;0.57;0.28;;;;;;;13.93;44.29;98020.13;5093283;28;20525;-51
2022/04/09 00:51:02;;;;;;;1.75;0.60;;;;;;;13.59;45.61;98034.03;5093163;28;20489;-51
2022/04/09 00:53:34;;;;;;;3.83;1.15;;;;;;;13.19;46.95;98044.56;5093093;28;20437;-51
2022/04/09 00:56:13;;;;;;;2.88;0.50;;;;;;;12.93;48.09;98066.94;5092922;28;20383;-51
2022/04/09 00:58:45;;;;;;;0.70;0.30;;;;;;;12.75;48.79;98070.50;5093043;28;20032;-51
2022/04/09 01:01:11;;;;;;;2.80;0.40;;;;;;;12.64;49.34;98073.94;5092996;28;20149;-51
2022/04/09 01:03:38;;;;;;;2.22;0.60;;;;;;;12.54;49.69;98083.19;5093154;28;20472;-50
2022/04/09 01:06:06;;;;;;;4.55;0.45;;;;;;;12.47;50.23;98082.47;5092412;28;20110;-51
2022/04/09 01:08:32;;;;;;;1.23;0.50;;;;;;;12.46;50.10;98095.91;5091477;28;20020;-50
2022/04/09 01:10:58;;;;;;;3.83;0.60;;;;;;;12.42;50.52;98111.31;5092750;28;20046;-50
2022/04/09 01:13:24;;;;;;;6.25;1.15;;;;;;;12.39;50.13;98122.28;5092722;28;20052;-51
2022/04/09 01:15:50;;;;;;;5.97;0.80;;;;;;;12.25;50.29;98113.78;5092584;28;20428;-52
2022/04/09 01:18:17;;;;;;;1.02;0.50;;;;;;;12.09;50.43;98130.22;5092661;28;20102;-52
2022/04/09 01:20:43;;;;;;;2.55;0.30;;;;;;;11.98;50.17;98129.16;5092530;28;20036;-50
2022/04/09 01:23:08;;;;;;;2.90;0.32;;;;;;;11.93;50.94;98129.84;5092689;28;20097;-50
2022/04/09 01:25:34;;;;;;;3.63;0.90;;;;;;;11.83;50.64;98147.13;5091170;28;20131;-49
2022/04/09 01:28:01;;;;;;;3.95;0.40;;;;;;;11.63;49.78;98139.47;5092433;28;20059;-51
2022/04/09 01:30:27;;;;;;;2.95;0.45;;;;;;;11.33;50.03;98154.16;5091057;28;20024;-51
2022/04/09 01:32:53;;;;;;;2.80;0.25;;;;;;;11.15;50.39;98141.00;5092227;28;20044;-51
2022/04/09 01:35:19;;;;;;;2.13;0.30;;;;;;;11.02;49.87;98154.25;5091070;28;20020;-50
2022/04/09 01:37:44;;;;;;;1.30;0.50;;;;;;;10.82;49.94;98149.97;5090905;28;20115;-51
2022/04/09 01:40:10;;;;;;;1.90;0.40;;;;;;;10.58;50.46;98180.44;5092268;28;20017;-50
2022/04/09 01:42:36;;;;;;;2.67;0.30;;;;;;;10.47;50.47;98187.19;5090958;28;20081;-51
2022/04/09 01:45:04;;;;;;;2.78;0.75;;;;;;;10.41;50.95;98177.53;5092205;28;20024;-51
2022/04/09 01:47:30;;;;;;;7.97;0.93;;;;;;;10.51;50.88;98183.13;5092144;28;20032;-51
2022/04/09 01:49:55;;;;;;;2.33;0.40;;;;;;;10.69;50.14;98174.50;5090916;28;20023;-51
2022/04/09 01:52:21;;;;;;;1.58;0.40;;;;;;;10.80;49.82;98170.38;5092083;28;20389;-50
2022/04/09 01:54:47;;;;;;;0.77;0.35;;;;;;;10.91;49.65;98166.28;5092054;28;20091;-50
2022/04/09 01:57:15;;;;;;;0.80;0.38;;;;;;;11.02;49.30;98165.56;5092001;28;20107;-51
2022/04/09 01:59:43;;;;;;;0.65;0.20;;;;;;;11.12;48.97;98175.56;5092017;28;20012;-51
2022/04/09 02:02:10;;;;;;;11.98;5.57;;;;;;;11.13;49.02;98169.31;5091985;28;20078;-51
2022/04/09 02:04:35;;;;;;;2.28;0.85;;;;;;;11.09;48.77;98183.91;5091914;28;20518;-52
2022/04/09 02:07:01;;;;;;;1.10;0.35;;;;;;;11.02;48.96;98191.00;5091947;28;20070;-51
2022/04/09 02:09:27;;;;;;;6.47;1.58;;;;;;;10.95;49.14;98204.22;5090609;28;20016;-50
2022/04/09 02:11:53;;;;;;;1.17;0.28;;;;;;;10.90;49.01;98215.31;5091847;28;20558;-50
2022/04/09 02:14:18;;;;;;;4.03;0.40;;;;;;;10.87;48.77;98221.03;5091911;28;20122;-52
2022/04/09 02:16:44;;;;;;;0.85;0.28;;;;;;;10.74;48.96;98219.28;5091708;28;20032;-50
2022/04/09 02:19:10;;;;;;;0.55;0.30;;;;;;;10.79;48.98;98227.34;5095313;28;20516;-51
2022/04/09 02:21:36;;;;;;;1.35;0.43;;;;;;;10.83;48.76;98240.03;5096038;28;20077;-51
2022/04/09 02:24:02;;;;;;;1.23;0.20;;;;;;;10.76;48.41;98235.63;5096000;28;20020;-50
2022/04/09 02:26:28;;;;;;;10.45;6.35;;;;;;;10.47;49.08;98251.97;5094524;28;20055;-52
2022/04/09 02:28:54;;;;;;;3.47;0.57;;;;;;;10.20;49.60;98242.38;5094629;28;20020;-51
2022/04/09 02:31:20;;;;;;;1.65;0.50;;;;;;;10.04;50.23;98242.03;5094260;28;20541;-52
2022/04/09 02:33:46;;;;;;;0.32;0.30;;;;;;;9.99;50.21;98247.91;5095844;28;20545;-50
2022/04/09 02:36:13;;;;;;;8.02;1.17;;;;;;;9.97;50.61;98263.81;5095707;28;20073;-51
2022/04/09 02:38:43;;;;;;;1.30;0.60;;;;;;;9.85;50.91;98272.53;5094396;28;20035;-51
2022/04/09 02:41:09;;;;;;;1.48;0.40;;;;;;;9.63;51.49;98282.47;5095717;28;20024;-51
2022/04/09 02:43:41;;;;;;;1.80;0.63;;;;;;;9.43;52.22;98291.13;5095626;28;20097;-50
2022/04/09 02:46:07;;;;;;;1.35;0.85;;;;;;;9.42;52.40;98296.56;5094275;28;20089;-51
2022/04/09 02:48:32;;;;;;;2.08;0.50;;;;;;;9.46;52.09;98305.66;5095458;28;20027;-52
2022/04/09 02:50:58;;;;;;;0.77;0.40;;;;;;;9.58;51.55;98294.38;5095497;28;20494;-51
2022/04/09 02:53:24;;;;;;;4.20;0.57;;;;;;;9.44;51.63;98307.66;5095447;28;20501;-50
2022/04/09 02:55:50;;;;;;;3.85;0.60;;;;;;;9.35;51.68;98305.25;5093941;28;20069;-51
2022/04/09 02:58:16;;;;;;;2.95;0.80;;;;;;;9.44;52.03;98307.66;5095382;28;20028;-51
2022/04/09 03:00:41;;;;;;;3.13;0.50;;;;;;;9.47;51.31;98309.88;5095292;28;20020;-50
2022/04/09 03:03:07;;;;;;;2.50;1.30;;;;;;;9.50;51.41;98309.50;5095226;28;20521;-50
2022/04/09 03:05:33;;;;;;;1.85;0.70;;;;;;;9.52;52.17;98305.66;5095153;28;20028;-51
2022/04/09 03:07:59;;;;;;;1.95;0.73;;;;;;;9.51;51.82;98305.84;5095192;28;20047;-51
2022/04/09 03:10:25;;;;;;;2.25;1.02;;;;;;;9.47;51.61;98322.97;5095045;28;20106;-50
2022/04/09 03:12:51;;;;;;;1.88;0.65;;;;;;;9.35;51.45;98325.38;5093825;28;20473;-51
2022/04/09 03:15:16;;;;;;;2.17;0.80;;;;;;;9.28;51.70;98337.69;5095010;28;20016;-51
2022/04/09 03:17:42;;;;;;;0.95;0.50;;;;;;;9.10;52.03;98361.84;5093536;28;20028;-50
2022/04/09 03:20:09;;;;;;;3.70;1.02;;;;;;;8.92;52.11;98362.41;5094926;28;20020;-51
2022/04/09 03:22:35;;;;;;;0.98;0.60;;;;;;;8.81;52.56;98368.97;5093524;28;20028;-50
2022/04/09 03:25:02;;;;;;;14.30;1.15;;;;;;;8.70;52.37;98377.41;5094747;28;20016;-50
2022/04/09 03:27:29;;;;;;;3.40;0.70;;;;;;;8.71;52.39;98386.88;5094793;28;20063;-51
2022/04/09 03:29:54;;;;;;;1.50;0.70;;;;;;;8.75;53.09;98373.22;5094447;28;20077;-49
2022/04/09 03:32:21;;;;;;;4.05;0.80;;;;;;;8.78;52.47;98379.84;5094451;28;20044;-51
2022/04/09 03:34:48;;;;;;;3.13;0.57;;;;;;;8.84;52.50;98378.28;5094699;28;20025;-52
2022/04/09 03:37:15;;;;;;;5.65;0.75;;;;;;;8.99;52.76;98374.50;5094506;28;20024;-50
2022/04/09 03:39:43;;;;;;;2.45;0.63;;;;;;;8.96;51.89;98374.88;5094637;28;20034;-49
2022/04/09 03:42:08;;;;;;;4.00;0.68;;;;;;;8.76;51.84;98376.63;5094527;28;20027;-50
2022/04/09 03:44:34;;;;;;;3.22;0.80;;;;;;;8.49;52.81;98373.09;5094457;28;20020;-49
2022/04/09 03:47:02;;;;;;;1.20;0.75;;;;;;;8.26;53.76;98381.19;5094431;28;20131;-50
2022/04/09 03:49:32;;;;;;;0.57;0.50;;;;;;;8.04;53.89;98372.63;5093291;28;20401;-49
2022/04/09 03:51:59;;;;;;;1.42;0.70;;;;;;;7.94;54.48;98375.56;5092986;28;20027;-50
2022/04/09 03:54:25;;;;;;;1.40;0.60;;;;;;;7.83;55.59;98374.31;5094248;28;20032;-49
2022/04/09 03:56:52;;;;;;;1.75;0.80;;;;;;;7.71;55.07;98375.81;5092809;28;20050;-50
2022/04/09 03:59:18;;;;;;;3.90;0.90;;;;;;;7.67;56.14;98367.56;5094198;28;20103;-49
2022/04/09 04:01:46;;;;;;;3.42;1.00;;;;;;;7.62;55.82;98388.19;5094393;28;20082;-50
2022/04/09 04:04:13;;;;;;;0.93;0.60;;;;;;;7.68;55.96;98390.03;5094110;28;20024;-50
2022/04/09 04:06:41;;;;;;;1.38;0.60;;;;;;;7.87;55.97;98388.59;5092944;28;20035;-50
2022/04/09 04:09:06;;;;;;;1.23;0.52;;;;;;;8.13;55.88;98398.44;5094001;28;20020;-51
2022/04/09 04:11:32;;;;;;;4.90;0.70;;;;;;;8.28;54.73;98397.50;5093939;28;20028;-50
2022/04/09 04:13:58;;;;;;;3.70;0.47;;;;;;;8.30;54.29;98403.34;5093871;28;20025;-49
2022/04/09 04:16:24;;;;;;;7.95;1.20;;;;;;;8.37;54.08;98406.78;5093699;28;20031;-51
2022/04/09 04:18:50;;;;;;;0.93;0.85;;;;;;;8.49;54.06;98410.53;5092523;28;20031;-49
2022/04/09 04:21:15;;;;;;;5.55;0.85;;;;;;;8.61;53.73;98413.38;5093741;28;20023;-50
2022/04/09 04:23:41;;;;;;;4.25;0.70;;;;;;;8.65;53.46;98413.81;5093687;28;20024;-51
2022/04/09 04:26:07;;;;;;;7.57;3.05;;;;;;;8.74;53.03;98397.75;5092339;28;20024;-49
2022/04/09 04:28:32;;;;;;;2.42;0.70;;;;;;;8.85;53.08;98406.03;5093602;28;20411;-50
2022/04/09 04:30:58;;;;;;;0.95;0.60;;;;;;;8.93;52.15;98406.69;5093362;28;20027;-51
2022/04/09 04:33:24;;;;;;;4.30;1.10;;;;;;;8.92;52.18;98404.28;5093504;28;20028;-51
2022/04/09 04:35:50;;;;;;;7.47;1.10;;;;;;;8.91;52.48;98411.28;5093392;28;20023;-50
2022/04/09 04:38:16;;;;;;;6.07;3.17;;;;;;;9.03;52.01;98408.91;5093461;28;20470;-51
2022/04/09 04:40:42;;;;;;;3.58;0.80;;;;;;;9.00;51.96;98423.22;5091383;28;20383;-49
2022/04/09 04:43:08;;;;;;;0.93;0.55;;;;;;;8.91;52.33;98419.13;5093350;28;20023;-50
2022/04/09 04:45:34;;;;;;;5.60;3.22;;;;;;;8.84;52.80;98428.78;5092004;28;20081;-50
2022/04/09 04:48:00;;;;;;;4.40;1.42;;;;;;;8.84;52.80;98439.25;5093310;28;20027;-51
2022/04/09 04:50:26;;;;;;;5.57;1.17;;;;;;;8.87;53.01;98438.84;5093251;28;20026;-50
2022/04/09 04:52:52;;;;;;;1.88;0.60;;;;;;;8.94;53.09;98442.31;5093188;28;20069;-51
2022/04/09 04:55:18;;;;;;;5.90;2.15;;;;;;;8.88;52.76;98447.53;5091727;28;20036;-48
2022/04/09 04:57:51;;;;;;;4.43;3.42;;;;;;;8.94;52.71;98438.91;5093021;28;20024;-50
2022/04/09 05:00:22;;;;;;;4.22;1.45;;;;;;;8.92;53.28;98443.53;5093038;28;20071;-50
2022/04/09 05:02:49;;;;;;;3.05;1.10;;;;;;;8.89;53.08;98438.66;5092984;28;20398;-51
2022/04/09 05:05:15;;;;;;;1.30;0.77;;;;;;;8.93;53.39;98442.50;5092807;28;20027;-50
2022/04/09 05:07:43;;;;;;;5.78;1.08;;;;;;;8.94;52.62;98444.94;5092901;28;20024;-49
2022/04/09 05:10:11;;;;;;;4.43;1.00;;;;;;;8.98;52.78;98451.38;5092782;28;20028;-50
2022/04/09 05:12:37;;;;;;;6.88;0.80;;;;;;;8.98;53.14;98451.38;5093061;28;20024;-49
2022/04/09 05:15:05;;;;;;;3.28;0.75;;;;;;;8.96;52.75;98463.06;5092660;28;20111;-50
2022/04/09 05:17:30;;;;;;;4.13;1.63;;;;;;;8.91;53.21;98468.06;5092591;28;20382;-51
2022/04/09 05:19:56;;;;;;;0.60;0.60;;;;;;;8.88;52.66;98471.88;5092630;28;20028;-50
2022/04/09 05:22:22;;;;;;;7.13;1.10;;;;;;;8.78;52.87;98476.66;5091244;28;20461;-51
2022/04/09 05:24:49;;;;;;;4.55;0.90;;;;;;;8.70;53.39;98469.78;5092579;28;20020;-49
2022/04/09 05:27:15;;;;;;;3.95;0.85;;;;;;;8.68;53.46;98477.03;5092484;28;20026;-50
2022/04/09 05:29:41;;;;;;;3.47;1.02;;;;;;;8.72;53.61;98488.72;5091193;28;20505;-51
2022/04/09 05:32:07;;;;;;;3.97;0.80;;;;;;;8.86;53.39;98489.59;5090859;28;20044;-51
2022/04/09 05:34:32;;;;;;;5.88;1.10;;;;;;;8.95;53.55;98495.47;5092385;28;20032;-50
2022/04/09 05:36:58;;;;;;;3.03;0.98;;;;;;;8.91;52.93;98497.66;5090987;28;20558;-51
2022/04/09 05:39:24;;;;;;;1.15;0.70;;;;;;;8.89;52.83;98504.09;5092322;28;20059;-51
2022/04/09 05:41:49;;;;;;;3.60;0.73;;;;;;;8.89;53.17;98507.50;5092250;28;20024;-51
2022/04/09 05:44:15;;;;;;;6.70;1.08;;;;;;;8.89;53.26;98514.56;5092288;28;20047;-50
2022/04/09 05:46:41;;;;;;;8.85;1.83;;;;;;;8.85;53.27;98508.09;5092188;28;20024;-51
2022/04/09 05:49:06;;;;;;;3.00;2.33;;;;;;;8.86;53.18;98513.13;5092225;28;20389;-50
2022/04/09 05:51:32;;;;;;;2.30;0.68;;;;;;;8.89;53.07;98517.97;5092096;28;20485;-51
2022/04/09 05:53:59;;;;;;;2.13;0.88;;;;;;;8.81;53.34;98518.13;5090758;28;20020;-51
2022/04/09 05:56:26;;;;;;;1.45;0.82;;;;;;;8.69;53.04;98519.69;5091968;28;20028;-51
2022/04/09 05:58:51;;;;;;;3.15;1.20;;;;;;;8.59;53.74;98531.31;5092130;28;20020;-50
2022/04/09 06:01:17;;;;;;;3.58;1.08;;;;;;;8.56;53.41;98529.06;5090598;28;20028;-50
2022/04/09 06:03:43;;;;;;;8.38;1.35;;;;;;;8.55;53.98;98530.06;5091947;28;20145;-49
2022/04/09 06:06:10;;;;;;;4.00;1.58;;;;;;;8.60;53.26;98535.53;5092193;28;20031;-50
2022/04/09 06:08:36;;;;;;;9.23;1.40;;;;;;;8.65;53.70;98539.38;5091930;28;20062;-49
2022/04/09 06:11:01;;;;;;;5.72;1.75;;;;;;;8.66;53.56;98546.25;5091891;28;20024;-49
2022/04/09 06:13:28;;;;;;;2.35;1.17;;;;;;;8.73;53.46;98539.22;5091876;28;20428;-49
2022/04/09 06:15:54;;;;;;;2.60;0.82;;;;;;;8.76;52.69;98542.28;5090423;28;20047;-51
2022/04/09 06:18:20;;;;;;;6.60;1.75;;;;;;;8.63;52.88;98547.41;5090445;28;20051;-50
2022/04/09 06:20:46;;;;;;;1.77;0.90;;;;;;;8.55;53.42;98543.16;5091826;28;20107;-49
2022/04/09 06:23:12;;;;;;;1.95;0.90;;;;;;;8.45;53.28;98557.53;5090474;28;20020;-50
2022/04/09 06:25:38;;;;;;;2.67;1.30;;;;;;;8.39;54.09;98556.44;5091681;28;20028;-49
2022/04/09 06:28:04;;;;;;;4.07;1.10;;;;;;;8.47;54.13;98563.38;5091780;28;20028;-51
2022/04/09 06:30:30;;;;;;;1.00;0.85;;;;;;;8.58;53.75;98557.66;5091667;28;20077;-50
2022/04/09 06:32:56;;;;;;;6.63;1.05;;;;;;;8.71;53.37;98565.59;5090203;28;20036;-51
2022/04/09 06:35:22;;;;;;;0.95;0.85;;;;;;;8.76;52.88;98560.59;5091731;28;20030;-50
2022/04/09 06:37:48;;;;;;;2.08;1.10;;;;;;;8.70;53.13;98557.94;5090288;28;20078;-50
2022/04/09 06:40:14;;;;;;;7.53;1.77;;;;;;;8.75;52.86;98569.44;5091529;28;20028;-50
2022/04/09 06:42:40;;;;;;;2.97;1.05;;;;;;;8.87;52.67;98561.84;5091662;28;20016;-49
2022/04/09 06:45:10;;;;;;;3.70;1.15;;;;;;;9.06;52.32;98562.97;5090216;28;20405;-50
2022/04/09 06:47:38;;;;;;;1.60;1.27;;;;;;;9.21;52.30;98565.47;5091579;28;20024;-49
2022/04/09 06:50:11;;;;;;;1.92;1.20;;;;;;;9.53;51.61;98565.78;5091521;28;20024;-49
2022/04/09 06:52:38;;;;;;;5.50;1.67;;;;;;;9.89;50.70;98562.88;5091555;28;20028;-49
2022/04/09 06:55:05;;;;;;;2.45;1.30;;;;;;;10.09;50.25;98573.41;5091490;28;20197;-52
2022/04/09 06:57:32;;;;;;;3.13;1.35;;;;;;;10.53;49.11;98573.84;5091443;28;20055;-50
2022/04/09 06:59:59;;;;;;;3.05;1.27;;;;;;;10.82;47.87;98564.72;5091472;28;20516;-50
2022/04/09 07:02:25;;;;;;;3.85;1.40;;;;;;;10.81;48.16;98576.25;5090085;28;20436;-50
2022/04/09 07:04:53;;;;;;;4.40;1.50;;;;;;;10.79;47.96;98575.66;5094182;28;20020;-51
2022/04/09 07:07:23;;;;;;;3.97;1.60;;;;;;;10.58;48.14;98579.28;5093825;28;20028;-49
2022/04/09 07:09:49;;;;;;;1.40;1.30;;;;;;;10.49;48.30;98573.44;5095205;28;20020;-49
2022/04/09 07:12:16;;;;;;;2.22;1.40;;;;;;;10.35;48.91;98583.13;5095042;28;20028;-50
2022/04/09 07:14:42;;;;;;;4.85;1.90;;;;;;;10.28;48.83;98589.34;5095127;28;20024;-51
2022/04/09 07:17:08;;;;;;;12.32;10.02;;;;;;;10.19;48.96;98584.28;5094968;28;20455;-49
2022/04/09 07:19:34;;;;;;;3.00;1.63;;;;;;;10.06;49.45;98578.22;5095538;28;20107;-50
2022/04/09 07:22:00;;;;;;;4.53;2.10;;;;;;;9.96;49.84;98586.47;5094948;28;20020;-51
2022/04/09 07:24:26;;;;;;;3.72;1.65;;;;;;;9.87;49.91;98588.47;5094921;28;20038;-50
2022/04/09 07:26:52;;;;;;;4.05;1.77;;;;;;;9.96;50.35;98584.69;5094834;28;20081;-49
2022/04/09 07:29:18;;;;;;;2.33;1.38;;;;;;;9.91;49.99;98587.06;5094774;28;20420;-50
2022/04/09 07:31:45;;;;;;;2.65;2.00;;;;;;;9.77;50.22;98588.03;5094510;28;20098;-50
2022/04/09 07:34:11;;;;;;;5.57;1.70;;;;;;;9.60;50.94;98577.91;5094672;28;20028;-51
2022/04/09 07:36:38;;;;;;;2.28;1.98;;;;;;;9.35;51.52;98590.69;5094540;28;20371;-50
2022/04/09 07:39:06;;;;;;;2.17;1.20;;;;;;;9.24;52.31;98596.50;5094616;28;20036;-50
2022/04/09 07:41:32;;;;;;;1.98;1.20;;;;;;;9.20;52.40;98595.28;5094606;28;20063;-49
2022/04/09 07:43:58;;;;;;;1.65;1.15;;;;;;;9.35;52.18;98597.75;5093296;28;20110;-50
2022/04/09 07:46:23;;;;;;;5.57;1.60;;;;;;;9.54;52.00;98602.28;5094457;28;20512;-50
2022/04/09 07:48:49;;;;;;;1.20;1.10;;;;;;;9.52;51.47;98603.50;5093128;28;20110;-49
2022/04/09 07:51:15;;;;;;;4.60;1.58;;;;;;;9.42;52.02;98605.63;5094365;28;20024;-51
2022/04/09 07:53:41;;;;;;;4.13;1.40;;;;;;;9.48;52.08;98617.97;5093039;28;20115;-50
2022/04/09 07:56:08;;;;;;;2.45;1.27;;;;;;;9.62;51.53;98608.34;5092842;28;20107;-50
2022/04/09 07:58:34;;;;;;;1.98;1.23;;;;;;;9.69;51.19;98610.00;5094244;28;20028;-50
2022/04/09 08:01:00;;;;;;;3.35;1.55;;;;;;;9.62;51.21;98613.59;5094177;28;20020;-49
2022/04/09 08:03:26;;;;;;;2.83;1.60;;;;;;;9.44;51.51;98616.72;5092775;28;20119;-50
2022/04/09 08:05:52;;;;;;;5.50;2.13;;;;;;;9.29;52.09;98619.50;5094088;28;20111;-51
2022/04/09 08:08:18;;;;;;;3.35;1.88;;;;;;;9.24;52.84;98616.66;5094053;28;20024;-49
2022/04/09 08:10:44;;;;;;;3.83;1.67;;;;;;;9.19;52.76;98615.44;5093999;28;20027;-50
2022/04/09 08:13:10;;;;;;;1.92;1.63;;;;;;;9.11;52.81;98620.78;5093951;28;20026;-51
2022/04/09 08:15:37;;;;;;;4.03;2.00;;;;;;;9.13;53.66;98626.63;5092796;28;20055;-51
2022/04/09 08:18:07;;;;;;;6.22;2.53;;;;;;;9.30;54.05;98621.13;5092502;28;20028;-50
2022/04/09 08:20:33;;;;;;;2.10;1.83;;;;;;;9.33;53.97;98628.56;5093824;28;20027;-50
2022/04/09 08:23:00;;;;;;;5.07;2.53;;;;;;;9.31;55.55;98626.13;5092437;28;20440;-50
2022/04/09 08:25:26;;;;;;;2.55;2.30;;;;;;;9.27;55.45;98634.59;5093650;28;20020;-49
2022/04/09 08:27:53;;;;;;;7.50;2.33;;;;;;;9.27;56.83;98642.44;5093977;28;20424;-51
2022/04/09 08:30:21;;;;;;;3.72;2.63;;;;;;;9.27;56.93;98643.25;5092541;28;20054;-50
2022/04/09 08:32:47;;;;;;;3.55;2.30;;;;;;;9.23;57.26;98642.00;5093400;28;20119;-50
2022/04/09 08:35:12;;;;;;;3.33;2.42;;;;;;;9.40;57.36;98635.47;5093396;28;20114;-49
2022/04/09 08:37:40;;;;;;;5.40;4.05;;;;;;;9.63;56.31;98634.34;5092032;28;20020;-51
2022/04/09 08:40:06;;;;;;;4.70;2.30;;;;;;;9.84;54.87;98636.06;5093392;28;20020;-51
2022/04/09 08:42:35;;;;;;;4.43;2.45;;;;;;;10.04;53.69;98633.50;5093228;28;20059;-49
2022/04/09 08:45:01;;;;;;;3.63;2.38;;;;;;;10.26;53.42;98634.16;5091950;28;20425;-51
2022/04/09 08:47:28;;;;;;;3.70;2.53;;;;;;;10.39;53.47;98630.75;5093280;28;20480;-50
2022/04/09 08:49:56;;;;;;;4.80;3.13;;;;;;;10.50;53.02;98631.97;5093244;28;20104;-49
2022/04/09 08:52:22;;;;;;;5.13;2.33;;;;;;;10.73;51.69;98634.22;5092005;28;20024;-50
2022/04/09 08:54:48;;;;;;;7.97;2.28;;;;;;;10.92;51.53;98636.00;5093151;28;20024;-50
2022/04/09 08:57:14;;;;;;;6.97;2.58;;;;;;;11.31;50.57;98634.34;5092961;28;20054;-51
2022/04/09 08:59:41;;;;;;;4.65;2.58;;;;;;;11.54;50.28;98633.84;5093115;28;20469;-50
2022/04/09 09:02:07;;;;;;;2.95;2.42;;;;;;;11.75;49.56;98634.56;5092985;28;20027;-50
2022/04/09 09:04:33;;;;;;;5.45;2.10;;;;;;;11.80;48.27;98638.19;5092969;28;20016;-49
2022/04/09 09:07:43;;;;;;;4.30;3.08;;;;;;;11.76;48.54;98634.38;5092876;28;20027;-50
2022/04/09 09:10:18;;;;;;;6.50;2.50;;;;;;;11.84;48.22;98637.78;5063687;28;20032;-51
2022/04/09 09:12:55;;;;;;;;;;;;;;;11.95;47.61;98637.97;5093319;28;20039;-51
2022/04/09 09:15:21;;;;;;;6.43;2.50;;;;;;;11.71;47.40;98639.47;5092793;28;19918;-50
2022/04/09 09:17:49;;;;;;;8.27;3.30;;;;;;;11.44;47.70;98651.88;5091325;28;20017;-51
2022/04/09 09:20:15;;;;;;;4.20;2.40;;;;;;;11.26;48.10;98644.63;5092619;28;20031;-50
2022/04/09 09:22:43;;;;;;;8.63;2.53;;;;;;;11.03;48.39;98655.59;5091387;28;20608;-50
2022/04/09 09:25:13;;;;;;;3.35;2.60;;;;;;;10.81;48.69;98659.47;5092535;28;20410;-50
2022/04/09 09:27:43;;;;;;;4.88;3.40;;;;;;;10.62;49.54;98656.59;5092371;28;20028;-50
2022/04/09 09:30:11;;;;;;;6.13;3.10;;;;;;;10.56;50.11;98663.50;5092499;28;20030;-51
2022/04/09 09:32:46;;;;;;;3.55;2.30;;;;;;;10.42;51.13;98666.28;5092155;28;20051;-50
2022/04/09 09:35:13;;;;;;;5.68;2.40;;;;;;;10.41;51.50;98665.47;5092477;28;20129;-51
2022/04/09 09:37:39;;;;;;;6.22;2.72;;;;;;;10.50;51.32;98664.28;5092385;28;20021;-50
2022/04/09 09:40:05;;;;;;;5.32;2.70;;;;;;;10.58;51.22;98666.72;5092326;28;20085;-51
2022/04/09 09:42:33;;;;;;;3.47;1.92;;;;;;;10.70;50.72;98660.84;5092376;28;20020;-51
2022/04/09 09:44:59;;;;;;;3.20;2.05;;;;;;;10.90;49.83;98668.72;5092276;28;20448;-50
2022/04/09 09:47:25;;;;;;;9.85;3.33;;;;;;;11.00;49.34;98663.88;5092271;28;20024;-50
2022/04/09 09:49:56;;;;;;;8.63;2.90;;;;;;;11.12;48.79;98664.06;5090851;28;20031;-51
2022/04/09 09:52:29;;;;;;;3.58;2.20;;;;;;;11.51;47.99;98668.44;5092236;28;20039;-50
2022/04/09 09:55:18;;;;;;;4.88;1.88;;;;;;;12.58;47.80;98663.47;5092135;28;20844;-51
2022/04/09 09:57:48;;;;;;;3.47;2.15;;;;;;;14.90;43.51;98650.44;5092115;28;20503;-50
2022/04/09 10:00:14;;;;;;;4.68;2.13;;;;;;;16.41;39.10;98643.41;5092027;28;20508;-53
2022/04/09 10:02:41;;;;;;;8.75;2.40;;;;;;;16.03;37.87;98638.75;5092013;28;20107;-52
2022/04/09 10:05:07;;;;;;;5.15;2.38;;;;;;;15.49;38.91;98646.94;5091952;28;20454;-51
2022/04/09 10:07:37;;;;;;;3.55;2.30;;;;;;;15.00;39.34;98641.94;5091981;28;20088;-52
2022/04/09 10:10:04;;;;;;;6.88;2.38;;;;;;;14.77;39.98;98646.19;5091888;28;20099;-51
2022/04/09 10:12:41;;;;;;;4.32;2.30;;;;;;;14.71;40.07;98639.16;5091869;28;20030;-51
2022/04/09 10:15:08;;;;;;;5.93;2.13;;;;;;;14.51;40.50;98642.09;5090601;28;20036;-51
2022/04/09 10:17:35;;;;;;;4.00;2.10;;;;;;;14.09;40.91;98643.94;5090455;28;20016;-51
2022/04/09 10:20:04;;;;;;;6.00;2.50;;;;;;;13.59;41.63;98645.75;5091816;28;20082;-52
2022/04/09 10:22:36;;;;;;;4.00;1.90;;;;;;;13.00;42.31;98652.41;5091823;28;20016;-50
2022/04/09 10:25:07;;;;;;;4.65;2.20;;;;;;;12.47;44.33;98658.09;5090534;28;20571;-51
2022/04/09 10:27:37;;;;;;;2.67;2.28;;;;;;;12.10;46.12;98657.91;5091869;28;20031;-52
2022/04/09 10:30:17;;;;;;;7.53;3.72;;;;;;;11.62;47.02;98659.09;5091792;28;20031;-51
2022/04/09 10:32:43;;;;;;;6.40;2.80;;;;;;;11.60;47.40;98659.31;5091551;28;20051;-50
2022/04/09 10:35:31;;;;;;;4.88;2.10;;;;;;;13.08;46.95;98649.50;5090321;28;20028;-51
2022/04/09 10:38:14;;;;;;;4.85;3.15;;;;;;;14.80;43.19;98634.34;5091571;28;20517;-51
2022/04/09 10:40:43;;;;;;;4.18;2.50;;;;;;;15.93;40.30;98632.22;5094471;28;20497;-52
2022/04/09 10:43:10;;;;;;;4.60;2.20;;;;;;;16.09;38.47;98625.38;5095694;28;20028;-52
2022/04/09 10:46:16;;;;;;;4.38;2.45;;;;;;;15.60;38.40;98632.09;5094312;28;20020;-52
2022/04/09 10:48:44;;;;;;;4.13;2.10;;;;;;;15.42;37.93;98620.63;5064704;28;20078;-51
2022/04/09 10:51:13;;;;;;;2.45;1.95;;;;;;;15.57;37.53;98623.59;5095540;28;20085;-52
2022/04/09 10:53:40;;;;;;;3.38;2.20;;;;;;;16.14;37.06;98614.09;5095542;28;20405;-51
2022/04/09 10:56:12;;;;;;;3.40;1.95;;;;;;;16.06;36.90;98617.13;5094041;28;20020;-52
2022/04/09 10:59:00;;;;;;;4.13;2.72;;;;;;;16.29;37.79;98618.84;5095425;28;20114;-51
2022/04/09 11:01:46;;;;;;;3.17;1.83;;;;;;;17.30;35.56;98621.41;5095375;28;20020;-52
2022/04/09 11:04:36;;;;;;;5.40;1.80;;;;;;;17.36;34.29;98607.19;5095340;28;20044;-51
2022/04/09 11:07:15;;;;;;;3.90;1.80;;;;;;;16.70;33.91;98615.00;5095290;28;20128;-53
2022/04/09 11:09:40;;;;;;;4.07;1.73;;;;;;;16.06;34.79;98611.81;5095250;28;20098;-51
2022/04/09 11:12:06;;;;;;;6.20;1.75;;;;;;;15.42;34.86;98606.59;5093826;28;20016;-51
2022/04/09 11:14:47;;;;;;;5.95;1.70;;;;;;;14.73;36.05;98615.16;5095093;28;20031;-50
2022/04/09 11:17:27;;;;;;;6.45;1.88;;;;;;;14.63;36.39;98625.47;5093631;28;20563;-50
2022/04/09 11:19:53;;;;;;;3.65;1.92;;;;;;;14.81;35.64;98622.75;5093728;28;20489;-51
2022/04/09 11:22:19;;;;;;;4.85;1.30;;;;;;;16.32;34.41;98621.03;5094953;28;20016;-51
2022/04/09 11:24:45;;;;;;;7.65;1.90;;;;;;;18.09;32.18;98612.28;5094906;28;20405;-50
2022/04/09 11:27:11;;;;;;;6.78;2.03;;;;;;;19.01;29.66;98603.44;5093520;28;20028;-52
2022/04/09 11:29:40;;;;;;;4.57;1.55;;;;;;;19.90;28.36;98609.66;5094849;28;20077;-52
2022/04/09 11:32:07;;;;;;;4.18;1.77;;;;;;;20.68;26.56;98603.34;5094425;28;20075;-51
2022/04/09 11:34:56;;;;;;;4.18;1.33;;;;;;;20.92;26.33;98588.38;5094762;28;20044;-51
2022/04/09 11:37:30;;;;;;;8.93;1.60;;;;;;;19.75;26.92;98608.56;5094679;28;20482;-52
2022/04/09 11:39:58;;;;;;;3.78;1.20;;;;;;;18.10;28.94;98611.22;5094662;28;20028;-51